Latest Weather Observations for Troughton Island

IDD60801

Issued at 6:03 pm CST Tuesday 31 March 2015 (issued every 30 minutes, with the page automatically refreshed every 10 minutes)

About weather observations | Map of weather stations | Latest weather observations for NT | Other Formats
Station Details ID: 001007 Name: TROUGHTON ISLAND Lat: -13.75 Lon: 126.15 Height: 6.0 m
Data from the previous 72 hours. | See also: Recent months at Troughton Island
Date/Time
CST
Temp
°C
App
Temp
°C
Dew
Point
Rel
Hum
%
Delta-T
°C
Wind Press
QNH
hPa
Press
MSL
hPa
Rain
since 9 am
mm
Dir
 
Spd
km/h
Gust
km/h
Spd
kts
Gust
kts
31/06:00pm 31.2 37.8 28.8 87 1.8 WNW 13 17 7 9 1010.7 - 0.0
31/05:30pm 31.5 38.2 28.9 86 1.9 W 13 15 7 8 1010.6 - 0.0
31/05:00pm 31.8 38.9 29.4 87 1.8 W 13 15 7 8 1010.6 - 0.0
31/04:30pm 31.8 38.6 29.6 88 1.6 W 15 17 8 9 1010.5 1010.4 0.0
31/04:00pm 31.6 38.5 29.2 87 1.8 W 13 15 7 8 1010.5 - 0.0
31/03:30pm 31.8 39.4 29.6 88 1.6 W 11 15 6 8 1010.8 - 0.0
31/03:00pm 31.8 39.4 29.6 88 1.6 WSW 11 15 6 8 1011.1 - 0.0
31/02:30pm 31.8 39.2 29.8 89 1.5 WSW 13 15 7 8 1011.5 - 0.0
31/02:00pm 32.1 39.8 30.2 90 1.4 WSW 13 15 7 8 1011.7 - 0.0
31/01:30pm 31.5 38.9 29.3 88 1.6 WSW 11 13 6 7 1012.1 1012.0 0.0
31/01:00pm 31.5 39.4 29.5 89 1.5 WSW 9 13 5 7 1012.7 - 0.0
31/12:30pm 31.6 39.6 29.6 89 1.5 SW 9 11 5 6 1013.3 - 0.0
31/12:00pm 31.1 38.7 29.1 89 1.5 SSW 9 11 5 6 1013.8 - 0.0
31/11:30am 31.3 39.3 29.6 91 1.3 SSW 9 13 5 7 1014.1 - 0.0
31/11:00am 30.7 38.0 29.2 92 1.1 S 11 15 6 8 1014.2 - 0.0
31/10:30am 30.3 37.0 28.9 92 1.0 SSW 13 15 7 8 1014.2 1014.1 0.0
31/10:00am 30.4 37.9 29.5 95 0.7 SSW 11 15 6 8 1014.3 - 0.0
31/09:30am 30.0 37.4 29.3 96 0.5 SSW 11 13 6 7 1014.2 - 0.0
31/09:00am 29.6 37.3 29.2 98 0.3 S 9 11 5 6 1014.0 - 0.0
31/08:30am 29.2 37.2 29.2 100 0.0 S 7 9 4 5 1013.8 - 0.0
31/08:00am 28.5 - 29.2 - - SSW 7 9 4 5 1013.5 - 0.0
31/07:30am 27.7 - 28.5 - - CALM 0 0 0 0 1013.3 1013.2 0.0
31/07:00am 27.6 - 28.4 - - CALM 0 0 0 0 1012.9 - 0.0
31/06:30am 27.7 - 28.4 - - CALM 0 0 0 0 1012.6 - 0.0
31/05:30am 27.8 - 28.3 - - CALM 0 0 0 0 1012.0 - 0.0
31/05:00am 27.8 - 28.3 - - CALM 0 0 0 0 1011.8 - 0.0
31/04:30am 27.8 - 28.3 - - SSW 6 7 3 4 1011.6 1011.5 0.0
31/04:00am 27.8 - 28.0 - - SW 4 6 2 3 1011.5 - 0.0
31/03:30am 27.8 - 28.0 - - SW 7 7 4 4 1011.6 - 0.0
31/03:00am 27.9 - 28.1 - - SW 7 9 4 5 1011.8 - 0.0
31/02:30am 27.7 - 27.9 - - WNW 7 7 4 4 1012.0 - 0.0
31/02:00am 27.8 35.0 27.8 100 0.0 NNW 6 7 3 4 1012.0 - 0.0
31/01:30am 28.3 35.7 28.1 99 0.1 N 6 9 3 5 1012.2 1012.1 0.0
31/01:00am 28.8 36.0 28.1 96 0.5 N 7 11 4 6 1012.4 - 0.0
31/12:30am 28.7 36.0 28.0 96 0.5 N 6 7 3 4 1013.0 - 0.0
31/12:00am 28.7 35.8 28.0 96 0.5 N 7 9 4 5 1013.2 - 0.0
 
Date/Time
CST
Temp
°C
App
Temp
°C
Dew
Point
Rel
Hum
%
Delta-T
°C
Wind Press
QNH
hPa
Press
MSL
hPa
Rain
since 9 am
mm
Dir
 
Spd
km/h
Gust
km/h
Spd
kts
Gust
kts
30/11:30pm 28.9 35.8 28.2 96 0.5 N 9 13 5 7 1013.4 - 0.0
30/11:00pm 28.7 35.3 27.8 95 0.7 NNE 9 13 5 7 1013.6 - 0.0
30/10:00pm 29.0 35.1 28.1 95 0.7 NNE 13 15 7 8 1013.7 - 0.0
30/09:30pm 29.1 36.0 28.2 95 0.7 NNE 9 15 5 8 1013.4 - 0.0
30/09:00pm 29.3 35.7 28.0 93 0.9 NNE 11 15 6 8 1013.0 - 0.0
30/08:30pm 29.4 35.4 28.0 92 1.0 N 13 17 7 9 1012.5 - 0.0
30/08:00pm 29.5 35.3 27.7 90 1.3 N 13 17 7 9 1012.0 - 0.0
30/07:30pm 29.6 35.7 27.6 89 1.4 N 11 13 6 7 1011.9 1011.8 0.0
30/07:00pm 29.9 36.3 27.5 87 1.7 N 9 13 5 7 1011.6 - 0.0
30/06:30pm 30.3 36.3 27.5 85 2.0 N 11 13 6 7 1011.4 - 0.0
30/06:00pm 31.0 38.1 28.0 84 2.2 NNE 7 11 4 6 1011.3 - 0.0
30/05:30pm 31.3 38.0 27.9 82 2.5 NNE 9 11 5 6 1011.2 - 0.0
30/05:00pm 31.2 37.8 27.8 82 2.5 NNE 9 11 5 6 1011.2 - 0.0
30/04:30pm 31.9 39.3 28.4 82 2.6 ENE 7 11 4 6 1011.2 1011.1 0.0
30/04:00pm 32.3 40.2 28.8 82 2.6 NE 6 11 3 6 1011.4 - 0.0
30/03:30pm 32.1 39.9 28.6 82 2.6 WSW 6 7 3 4 1011.4 - 0.0
30/03:00pm 31.7 39.7 29.1 86 1.9 WSW 7 9 4 5 1011.7 - 0.0
30/02:30pm 31.4 39.5 29.0 87 1.8 WSW 6 9 3 5 1012.1 - 0.0
30/02:00pm 31.3 39.3 28.9 87 1.8 SW 6 11 3 6 1012.4 - 0.0
30/01:30pm 31.3 39.5 29.1 88 1.6 WSW 6 9 3 5 1012.7 1012.6 0.0
30/01:00pm 31.4 39.8 29.4 89 1.5 E 6 9 3 5 1013.1 - 0.0
30/12:30pm 30.9 39.1 29.4 92 1.1 SW 7 9 4 5 1013.3 - 0.0
30/12:00pm 31.0 39.2 29.9 94 0.8 S 9 11 5 6 1013.6 - 0.0
30/11:30am 30.5 38.9 30.1 98 0.3 SSW 9 11 5 6 1013.9 - 0.0
30/11:00am 30.2 38.7 30.2 100 0.0 SSW 9 11 5 6 1013.9 - 0.0
30/10:30am 30.1 - 30.4 - - SSW 11 13 6 7 1014.0 1013.9 0.0
30/10:00am 29.9 - 30.2 - - SSW 9 13 5 7 1013.9 - 0.0
30/09:30am 29.7 - 30.2 - - SSW 9 11 5 6 1013.9 - 0.0
30/09:00am 29.3 - 30.1 - - SSW 9 11 5 6 1013.8 - 0.0
30/08:30am 28.8 - 29.8 - - S 11 13 6 7 1013.5 - 0.0
30/08:00am 28.3 - 29.5 - - S 11 13 6 7 1013.2 - 0.0
30/07:30am 27.7 - 28.9 - - S 11 13 6 7 1012.8 1012.7 0.0
30/07:00am 27.7 - 28.9 - - SSW 11 15 6 8 1012.6 - 0.0
30/06:30am 27.5 - 28.7 - - S 11 11 6 6 1012.3 - 0.0
30/06:00am 27.3 - 28.5 - - SSE 9 11 5 6 1011.9 - 0.0
30/05:30am 27.2 - 28.4 - - SSE 9 11 5 6 1011.5 - 0.0
30/05:00am 27.3 - 28.5 - - CALM 0 0 0 0 1011.2 - 0.0
30/04:30am 27.1 - 28.1 - - CALM 0 0 0 0 1011.0 1010.9 0.0
30/04:00am 27.2 - 28.2 - - CALM 0 6 0 3 1010.9 - 0.0
30/03:30am 27.6 - 28.4 - - NNE 7 9 4 5 1010.7 - 0.0
30/03:00am 28.2 - 28.9 - - N 9 11 5 6 1010.6 - 0.0
30/02:30am 28.0 - 28.8 - - NNE 4 9 2 5 1010.9 - 0.0
30/02:00am 27.6 - 28.3 - - CALM 0 6 0 3 1011.4 - 0.0
30/01:30am 27.8 - 28.6 - - NE 7 9 4 5 1011.8 - 0.0
30/01:00am 28.0 - 28.7 - - NE 11 13 6 7 1012.0 - 0.0
30/12:30am 28.0 - 28.7 - - NE 11 13 6 7 1012.4 - 0.0
30/12:00am 28.1 - 28.6 - - NNE 11 13 6 7 1012.8 - 0.0
 
Date/Time
CST
Temp
°C
App
Temp
°C
Dew
Point
Rel
Hum
%
Delta-T
°C
Wind Press
QNH
hPa
Press
MSL
hPa
Rain
since 9 am
mm
Dir
 
Spd
km/h
Gust
km/h
Spd
kts
Gust
kts
29/11:30pm 28.2 - 28.7 - - NE 13 15 7 8 1012.9 - 0.0
29/11:00pm 28.3 - 28.8 - - NE 13 15 7 8 1013.1 - 0.0
29/10:30pm 28.3 - 28.8 - - NE 11 13 6 7 1013.3 1013.2 0.0
29/10:00pm 28.4 - 28.7 - - NE 11 13 6 7 1013.2 - 0.0
29/09:30pm 28.4 - 28.7 - - NNE 7 9 4 5 1013.3 - 0.0
29/09:00pm 28.6 - 28.8 - - NNE 7 9 4 5 1013.2 - 0.0
29/08:30pm 28.7 36.4 28.7 100 0.0 NNE 7 11 4 6 1012.9 - 0.0
29/08:00pm 28.9 36.1 28.6 98 0.2 N 9 11 5 6 1012.7 - 0.0
29/07:30pm 29.0 36.0 28.8 99 0.1 N 11 15 6 8 1012.4 1012.3 0.0
29/07:00pm 29.0 35.9 28.7 98 0.2 N 11 15 6 8 1012.0 - 0.0
29/06:30pm 29.6 37.2 29.1 97 0.4 N 9 13 5 7 1011.8 - 0.0
29/06:00pm 29.6 36.7 28.9 96 0.5 N 11 13 6 7 1011.8 - 0.0
29/05:30pm 29.7 37.2 29.0 96 0.5 N 9 15 5 8 1011.7 - 0.0
29/05:00pm 29.8 37.2 28.9 95 0.7 N 9 13 5 7 1011.6 - 0.0
29/04:30pm 30.4 38.6 29.9 97 0.4 NNE 9 13 5 7 1011.6 1011.5 0.0
29/04:00pm 30.3 37.9 29.6 96 0.5 NNE 11 13 6 7 1011.6 - 0.0
29/03:30pm 30.1 37.2 29.0 94 0.8 NE 11 13 6 7 1011.8 - 0.0
29/03:00pm 30.3 38.1 29.4 95 0.7 NE 9 13 5 7 1011.9 - 0.0
29/02:30pm 30.4 37.8 29.3 94 0.8 ENE 11 15 6 8 1012.2 - 0.0
29/02:00pm 30.5 38.1 29.6 95 0.7 ENE 11 15 6 8 1012.5 - 0.0
29/01:30pm 30.3 37.5 29.6 96 0.5 ENE 13 17 7 9 1012.8 1012.7 0.0
29/01:00pm 30.6 38.6 30.1 97 0.4 ENE 11 15 6 8 1013.0 - 0.0
29/12:30pm 30.1 37.0 29.2 95 0.7 ENE 13 15 7 8 1013.4 - 0.0
29/12:00pm 30.1 37.2 29.4 96 0.5 E 13 15 7 8 1013.6 - 0.0
29/11:30am 30.1 37.5 29.4 96 0.5 E 11 15 6 8 1014.0 - 0.0
29/11:00am 30.2 38.3 29.7 97 0.4 E 9 13 5 7 1014.3 - 0.0
29/10:30am 29.9 37.3 29.4 97 0.4 E 11 13 6 7 1014.1 1014.0 6.0
29/10:00am 29.6 37.0 29.4 99 0.1 ESE 11 13 6 7 1014.0 - 6.0
29/09:30am 29.4 36.7 29.2 99 0.1 E 11 13 6 7 1013.9 - 6.0
29/09:00am 29.1 36.3 29.1 100 0.0 E 11 13 6 7 1013.7 - 6.0
29/08:30am 28.6 - 28.9 - - E 13 17 7 9 1013.3 - 6.0
29/08:00am 28.1 - 28.8 - - E 13 15 7 8 1012.8 - 6.0
29/07:30am 27.3 - 28.3 - - E 13 15 7 8 1012.4 1012.3 6.0
29/07:00am 27.0 - 28.0 - - ESE 15 17 8 9 1012.0 - 6.0
29/06:30am 27.3 - 28.1 - - E 15 17 8 9 1011.7 - 6.0
29/06:00am 27.3 - 28.0 - - E 15 19 8 10 1011.4 - 6.0
29/05:30am 27.2 - 27.7 - - E 15 17 8 9 1011.2 - 6.0
29/05:00am 27.2 - 27.7 - - E 17 19 9 10 1010.9 - 6.0
29/04:30am 27.0 - 27.7 - - ESE 17 20 9 11 1010.9 1010.8 6.0
29/04:00am 27.3 - 28.0 - - E 19 22 10 12 1011.2 - 6.0
29/03:30am 27.4 - 28.1 - - E 19 22 10 12 1011.3 - 6.0
29/03:00am 27.4 - 27.7 - - E 20 26 11 14 1011.5 - 6.0
29/02:30am 27.6 - 27.9 - - E 19 20 10 11 1011.7 - 6.0
29/02:00am 27.4 - 27.7 - - E 19 22 10 12 1012.1 - 6.0
29/01:30am 27.5 - 27.8 - - E 19 24 10 13 1012.5 1012.4 6.0
29/01:00am 27.1 - 27.6 - - E 20 26 11 14 1012.8 - 6.0
29/12:30am 27.0 - 27.2 - - E 24 28 13 15 1012.8 - 6.0
29/12:00am 27.0 - 27.2 - - ESE 26 32 14 17 1012.7 - 6.0
 
Date/Time
CST
Temp
°C
App
Temp
°C
Dew
Point
Rel
Hum
%
Delta-T
°C
Wind Press
QNH
hPa
Press
MSL
hPa
Rain
since 9 am
mm
Dir
 
Spd
km/h
Gust
km/h
Spd
kts
Gust
kts
28/11:30pm 27.2 - 27.7 - - E 26 32 14 17 1012.7 - 6.0
28/11:00pm 27.2 30.4 27.0 99 0.1 E 24 28 13 15 1012.9 - 6.0
28/10:30pm 27.4 30.9 27.4 100 0.0 E 24 28 13 15 1013.0 1012.9 6.0
28/10:00pm 27.0 - 27.7 - - E 19 22 10 12 1013.0 - 6.0
28/09:30pm 26.7 - 27.7 - - ESE 17 20 9 11 1012.8 - 6.0
28/09:00pm 26.7 - 27.7 - - ESE 17 20 9 11 1012.6 - 6.0
28/08:30pm 26.8 - 27.5 - - ESE 19 24 10 13 1012.3 - 6.0
28/08:00pm 26.8 - 27.6 - - ESE 19 20 10 11 1012.1 - 6.0

Other Formats:

Comma delimited format used in spreadsheet applications
http://www.bom.gov.au/fwo/IDD60801/IDD60801.94102.axf

JavaScript Object Notation format (JSON) in row-major order
http://www.bom.gov.au/fwo/IDD60801/IDD60801.94102.json